sensor_id;sensor_type;location;lat;lon;timestamp;temperature;humidity
420;DHT22;42600;54.408;13.016;2022-12-18T00:02:02;-5.00;92.70
420;DHT22;42600;54.408;13.016;2022-12-18T00:04:29;-5.10;92.70
420;DHT22;42600;54.408;13.016;2022-12-18T00:06:56;-5.10;92.70
420;DHT22;42600;54.408;13.016;2022-12-18T00:09:23;-5.10;92.70
420;DHT22;42600;54.408;13.016;2022-12-18T00:11:49;-5.10;92.70
420;DHT22;42600;54.408;13.016;2022-12-18T00:14:16;-5.20;92.70
420;DHT22;42600;54.408;13.016;2022-12-18T00:16:45;-5.30;92.70
420;DHT22;42600;54.408;13.016;2022-12-18T00:19:13;-5.20;92.70
420;DHT22;42600;54.408;13.016;2022-12-18T00:21:41;-5.30;92.70
420;DHT22;42600;54.408;13.016;2022-12-18T00:24:08;-5.20;92.70
420;DHT22;42600;54.408;13.016;2022-12-18T00:26:36;-5.20;92.70
420;DHT22;42600;54.408;13.016;2022-12-18T00:29:05;-5.20;92.70
420;DHT22;42600;54.408;13.016;2022-12-18T00:31:32;-5.20;92.70
420;DHT22;42600;54.408;13.016;2022-12-18T00:34:00;-5.30;92.70
420;DHT22;42600;54.408;13.016;2022-12-18T00:36:30;-5.20;92.70
420;DHT22;42600;54.408;13.016;2022-12-18T00:38:58;-5.20;92.70
420;DHT22;42600;54.408;13.016;2022-12-18T00:41:26;-5.30;92.70
420;DHT22;42600;54.408;13.016;2022-12-18T00:44:13;-5.30;92.70
420;DHT22;42600;54.408;13.016;2022-12-18T00:46:40;-5.30;92.70
420;DHT22;42600;54.408;13.016;2022-12-18T00:49:08;-5.40;92.70
420;DHT22;42600;54.408;13.016;2022-12-18T00:51:35;-5.40;92.70
420;DHT22;42600;54.408;13.016;2022-12-18T00:54:02;-5.30;92.70
420;DHT22;42600;54.408;13.016;2022-12-18T00:56:28;-5.40;92.70
420;DHT22;42600;54.408;13.016;2022-12-18T00:58:55;-5.40;92.70
420;DHT22;42600;54.408;13.016;2022-12-18T01:01:22;-5.40;92.70
420;DHT22;42600;54.408;13.016;2022-12-18T01:03:49;-5.40;92.70
420;DHT22;42600;54.408;13.016;2022-12-18T01:06:17;-5.50;92.70
420;DHT22;42600;54.408;13.016;2022-12-18T01:08:44;-5.50;92.70
420;DHT22;42600;54.408;13.016;2022-12-18T01:11:13;-5.50;92.70
420;DHT22;42600;54.408;13.016;2022-12-18T01:13:40;-5.50;92.70
420;DHT22;42600;54.408;13.016;2022-12-18T01:16:07;-5.60;92.70
420;DHT22;42600;54.408;13.016;2022-12-18T01:18:34;-5.60;92.70
420;DHT22;42600;54.408;13.016;2022-12-18T01:21:02;-5.60;92.70
420;DHT22;42600;54.408;13.016;2022-12-18T01:23:33;-5.60;92.70
420;DHT22;42600;54.408;13.016;2022-12-18T01:26:04;-5.70;92.70
420;DHT22;42600;54.408;13.016;2022-12-18T01:28:31;-5.70;92.70
420;DHT22;42600;54.408;13.016;2022-12-18T01:31:12;-5.80;92.70
420;DHT22;42600;54.408;13.016;2022-12-18T01:33:39;-5.90;92.70
420;DHT22;42600;54.408;13.016;2022-12-18T01:36:07;-5.90;92.70
420;DHT22;42600;54.408;13.016;2022-12-18T01:38:35;-5.90;92.70
420;DHT22;42600;54.408;13.016;2022-12-18T01:41:02;-5.90;92.70
420;DHT22;42600;54.408;13.016;2022-12-18T01:43:45;-5.90;92.70
420;DHT22;42600;54.408;13.016;2022-12-18T01:46:13;-5.90;92.70
420;DHT22;42600;54.408;13.016;2022-12-18T01:48:40;-5.90;92.70
420;DHT22;42600;54.408;13.016;2022-12-18T01:51:09;-6.00;92.70
420;DHT22;42600;54.408;13.016;2022-12-18T01:53:39;-6.00;92.70
420;DHT22;42600;54.408;13.016;2022-12-18T01:56:06;-6.00;92.70
420;DHT22;42600;54.408;13.016;2022-12-18T01:58:39;-6.00;92.70
420;DHT22;42600;54.408;13.016;2022-12-18T02:01:08;-6.10;92.70
420;DHT22;42600;54.408;13.016;2022-12-18T02:03:34;-6.10;92.70
420;DHT22;42600;54.408;13.016;2022-12-18T02:06:07;-6.00;92.70
420;DHT22;42600;54.408;13.016;2022-12-18T02:08:41;-6.00;92.70
420;DHT22;42600;54.408;13.016;2022-12-18T02:11:18;-6.00;92.70
420;DHT22;42600;54.408;13.016;2022-12-18T02:13:53;-6.00;92.70
420;DHT22;42600;54.408;13.016;2022-12-18T02:16:26;-6.00;92.70
420;DHT22;42600;54.408;13.016;2022-12-18T02:18:58;-6.00;92.70
420;DHT22;42600;54.408;13.016;2022-12-18T02:21:32;-6.10;92.70
420;DHT22;42600;54.408;13.016;2022-12-18T02:24:11;-6.00;92.70
420;DHT22;42600;54.408;13.016;2022-12-18T02:26:45;-6.10;92.70
420;DHT22;42600;54.408;13.016;2022-12-18T02:29:18;-6.20;92.70
420;DHT22;42600;54.408;13.016;2022-12-18T02:31:50;-6.20;92.70
420;DHT22;42600;54.408;13.016;2022-12-18T02:34:19;-6.20;92.70
420;DHT22;42600;54.408;13.016;2022-12-18T02:36:46;-6.20;92.70
420;DHT22;42600;54.408;13.016;2022-12-18T02:39:16;-6.20;92.70
420;DHT22;42600;54.408;13.016;2022-12-18T02:41:45;-6.30;92.70
420;DHT22;42600;54.408;13.016;2022-12-18T02:44:13;-6.40;92.70
420;DHT22;42600;54.408;13.016;2022-12-18T02:46:42;-6.50;92.70
420;DHT22;42600;54.408;13.016;2022-12-18T02:49:25;-6.50;92.70
420;DHT22;42600;54.408;13.016;2022-12-18T02:51:54;-6.50;92.70
420;DHT22;42600;54.408;13.016;2022-12-18T02:54:31;-6.50;92.70
420;DHT22;42600;54.408;13.016;2022-12-18T02:57:08;-6.60;92.70
420;DHT22;42600;54.408;13.016;2022-12-18T02:59:42;-6.70;92.70
420;DHT22;42600;54.408;13.016;2022-12-18T03:02:19;-6.70;92.70
420;DHT22;42600;54.408;13.016;2022-12-18T03:04:53;-6.60;92.70
420;DHT22;42600;54.408;13.016;2022-12-18T03:07:27;-6.40;92.70
420;DHT22;42600;54.408;13.016;2022-12-18T03:09:55;-6.50;92.70
420;DHT22;42600;54.408;13.016;2022-12-18T03:12:28;-6.60;92.70
420;DHT22;42600;54.408;13.016;2022-12-18T03:15:01;-6.70;92.70
420;DHT22;42600;54.408;13.016;2022-12-18T03:17:32;-6.60;92.70
420;DHT22;42600;54.408;13.016;2022-12-18T03:20:03;-6.50;92.70
420;DHT22;42600;54.408;13.016;2022-12-18T03:22:33;-6.50;92.70
420;DHT22;42600;54.408;13.016;2022-12-18T03:25:01;-6.60;92.70
420;DHT22;42600;54.408;13.016;2022-12-18T03:27:31;-6.60;92.70
420;DHT22;42600;54.408;13.016;2022-12-18T03:30:03;-6.60;92.70
420;DHT22;42600;54.408;13.016;2022-12-18T03:32:35;-6.60;92.70
420;DHT22;42600;54.408;13.016;2022-12-18T03:35:06;-6.60;92.70
420;DHT22;42600;54.408;13.016;2022-12-18T03:37:34;-6.70;92.70
420;DHT22;42600;54.408;13.016;2022-12-18T03:40:00;-6.70;92.70
420;DHT22;42600;54.408;13.016;2022-12-18T03:42:31;-6.70;92.70
420;DHT22;42600;54.408;13.016;2022-12-18T03:45:06;-6.70;92.70
420;DHT22;42600;54.408;13.016;2022-12-18T03:47:38;-6.70;92.70
420;DHT22;42600;54.408;13.016;2022-12-18T03:50:11;-6.70;92.70
420;DHT22;42600;54.408;13.016;2022-12-18T03:52:42;-6.80;92.70
420;DHT22;42600;54.408;13.016;2022-12-18T03:55:12;-6.90;92.70
420;DHT22;42600;54.408;13.016;2022-12-18T03:57:42;-7.00;92.70
420;DHT22;42600;54.408;13.016;2022-12-18T04:00:13;-7.00;92.70
420;DHT22;42600;54.408;13.016;2022-12-18T04:02:44;-7.10;92.70
420;DHT22;42600;54.408;13.016;2022-12-18T04:05:13;-7.10;92.70
420;DHT22;42600;54.408;13.016;2022-12-18T04:07:41;-7.20;92.70
420;DHT22;42600;54.408;13.016;2022-12-18T04:10:09;-7.40;92.70
420;DHT22;42600;54.408;13.016;2022-12-18T04:12:37;-7.40;92.70
420;DHT22;42600;54.408;13.016;2022-12-18T04:15:07;-7.40;92.70
420;DHT22;42600;54.408;13.016;2022-12-18T04:17:34;-7.40;92.70
420;DHT22;42600;54.408;13.016;2022-12-18T04:20:00;-7.40;92.70
420;DHT22;42600;54.408;13.016;2022-12-18T04:22:27;-7.40;92.70
420;DHT22;42600;54.408;13.016;2022-12-18T04:24:54;-7.30;92.70
420;DHT22;42600;54.408;13.016;2022-12-18T04:27:20;-7.30;92.70
420;DHT22;42600;54.408;13.016;2022-12-18T04:29:47;-7.30;92.70
420;DHT22;42600;54.408;13.016;2022-12-18T04:32:15;-7.40;92.70
420;DHT22;42600;54.408;13.016;2022-12-18T04:34:42;-7.40;92.70
420;DHT22;42600;54.408;13.016;2022-12-18T04:37:08;-7.40;92.70
420;DHT22;42600;54.408;13.016;2022-12-18T04:39:35;-7.30;92.70
420;DHT22;42600;54.408;13.016;2022-12-18T04:42:02;-7.30;92.70
420;DHT22;42600;54.408;13.016;2022-12-18T04:44:29;-7.40;92.70
420;DHT22;42600;54.408;13.016;2022-12-18T04:46:55;-7.50;92.70
420;DHT22;42600;54.408;13.016;2022-12-18T04:49:23;-7.50;92.70
420;DHT22;42600;54.408;13.016;2022-12-18T04:51:50;-7.60;92.70
420;DHT22;42600;54.408;13.016;2022-12-18T04:54:17;-7.60;92.70
420;DHT22;42600;54.408;13.016;2022-12-18T04:56:44;-7.70;92.70
420;DHT22;42600;54.408;13.016;2022-12-18T04:59:10;-7.60;92.70
420;DHT22;42600;54.408;13.016;2022-12-18T05:01:37;-7.50;92.70
420;DHT22;42600;54.408;13.016;2022-12-18T05:04:04;-7.40;92.70
420;DHT22;42600;54.408;13.016;2022-12-18T05:06:32;-7.50;92.70
420;DHT22;42600;54.408;13.016;2022-12-18T05:08:59;-7.50;92.70
420;DHT22;42600;54.408;13.016;2022-12-18T05:11:25;-7.50;92.70
420;DHT22;42600;54.408;13.016;2022-12-18T05:13:52;-7.50;92.70
420;DHT22;42600;54.408;13.016;2022-12-18T05:16:19;-7.50;92.70
420;DHT22;42600;54.408;13.016;2022-12-18T05:18:45;-7.60;92.70
420;DHT22;42600;54.408;13.016;2022-12-18T05:21:12;-7.70;92.70
420;DHT22;42600;54.408;13.016;2022-12-18T05:23:40;-7.70;92.70
420;DHT22;42600;54.408;13.016;2022-12-18T05:26:07;-7.60;92.70
420;DHT22;42600;54.408;13.016;2022-12-18T05:28:35;-7.50;92.70
420;DHT22;42600;54.408;13.016;2022-12-18T05:31:03;-7.40;92.70
420;DHT22;42600;54.408;13.016;2022-12-18T05:33:32;-7.40;92.70
420;DHT22;42600;54.408;13.016;2022-12-18T05:36:03;-7.40;92.70
420;DHT22;42600;54.408;13.016;2022-12-18T05:38:32;-7.40;92.70
420;DHT22;42600;54.408;13.016;2022-12-18T05:41:00;-7.30;92.70
420;DHT22;42600;54.408;13.016;2022-12-18T05:43:28;-7.30;92.70
420;DHT22;42600;54.408;13.016;2022-12-18T05:45:55;-7.30;92.70
420;DHT22;42600;54.408;13.016;2022-12-18T05:48:23;-7.30;92.70
420;DHT22;42600;54.408;13.016;2022-12-18T05:50:50;-7.30;92.70
420;DHT22;42600;54.408;13.016;2022-12-18T05:53:19;-7.20;92.70
420;DHT22;42600;54.408;13.016;2022-12-18T05:55:46;-7.30;92.70
420;DHT22;42600;54.408;13.016;2022-12-18T05:58:15;-7.30;92.70
420;DHT22;42600;54.408;13.016;2022-12-18T06:00:44;-7.40;92.70
420;DHT22;42600;54.408;13.016;2022-12-18T06:03:11;-7.40;92.70
420;DHT22;42600;54.408;13.016;2022-12-18T06:05:40;-7.40;92.70
420;DHT22;42600;54.408;13.016;2022-12-18T06:08:07;-7.40;92.70
420;DHT22;42600;54.408;13.016;2022-12-18T06:10:34;-7.40;92.70
420;DHT22;42600;54.408;13.016;2022-12-18T06:13:01;-7.40;92.70
420;DHT22;42600;54.408;13.016;2022-12-18T06:15:29;-7.40;92.70
420;DHT22;42600;54.408;13.016;2022-12-18T06:17:56;-7.40;92.70
420;DHT22;42600;54.408;13.016;2022-12-18T06:20:22;-7.40;92.70
420;DHT22;42600;54.408;13.016;2022-12-18T06:22:49;-7.40;92.70
420;DHT22;42600;54.408;13.016;2022-12-18T06:25:16;-7.40;92.70
420;DHT22;42600;54.408;13.016;2022-12-18T06:27:43;-7.40;92.70
420;DHT22;42600;54.408;13.016;2022-12-18T06:30:11;-7.50;92.70
420;DHT22;42600;54.408;13.016;2022-12-18T06:32:39;-7.60;92.70
420;DHT22;42600;54.408;13.016;2022-12-18T06:35:06;-7.60;92.70
420;DHT22;42600;54.408;13.016;2022-12-18T06:37:33;-7.60;92.70
420;DHT22;42600;54.408;13.016;2022-12-18T06:40:00;-7.60;92.70
420;DHT22;42600;54.408;13.016;2022-12-18T06:42:28;-7.60;92.70
420;DHT22;42600;54.408;13.016;2022-12-18T06:44:55;-7.50;92.70
420;DHT22;42600;54.408;13.016;2022-12-18T06:47:21;-7.50;92.70
420;DHT22;42600;54.408;13.016;2022-12-18T06:49:49;-7.40;92.70
420;DHT22;42600;54.408;13.016;2022-12-18T06:52:16;-7.40;92.70
420;DHT22;42600;54.408;13.016;2022-12-18T06:54:43;-7.50;92.70
420;DHT22;42600;54.408;13.016;2022-12-18T06:57:09;-7.50;92.70
420;DHT22;42600;54.408;13.016;2022-12-18T06:59:36;-7.60;92.70
420;DHT22;42600;54.408;13.016;2022-12-18T07:02:03;-7.60;92.70
420;DHT22;42600;54.408;13.016;2022-12-18T07:04:30;-7.60;92.70
420;DHT22;42600;54.408;13.016;2022-12-18T07:06:58;-7.70;92.70
420;DHT22;42600;54.408;13.016;2022-12-18T07:09:25;-7.70;92.70
420;DHT22;42600;54.408;13.016;2022-12-18T07:11:51;-7.70;92.70
420;DHT22;42600;54.408;13.016;2022-12-18T07:14:18;-7.70;92.70
420;DHT22;42600;54.408;13.016;2022-12-18T07:16:45;-7.80;92.70
420;DHT22;42600;54.408;13.016;2022-12-18T07:19:11;-7.80;92.70
420;DHT22;42600;54.408;13.016;2022-12-18T07:21:38;-7.80;92.70
420;DHT22;42600;54.408;13.016;2022-12-18T07:24:07;-7.90;92.70
420;DHT22;42600;54.408;13.016;2022-12-18T07:26:34;-8.00;92.70
420;DHT22;42600;54.408;13.016;2022-12-18T07:29:00;-7.90;92.70
420;DHT22;42600;54.408;13.016;2022-12-18T07:31:27;-7.90;92.70
420;DHT22;42600;54.408;13.016;2022-12-18T07:33:54;-7.90;92.70
420;DHT22;42600;54.408;13.016;2022-12-18T07:36:20;-7.90;92.70
420;DHT22;42600;54.408;13.016;2022-12-18T07:38:48;-7.90;92.70
420;DHT22;42600;54.408;13.016;2022-12-18T07:41:16;-7.90;92.70
420;DHT22;42600;54.408;13.016;2022-12-18T07:43:44;-8.00;92.70
420;DHT22;42600;54.408;13.016;2022-12-18T07:46:12;-8.00;92.70
420;DHT22;42600;54.408;13.016;2022-12-18T07:48:40;-8.00;92.70
420;DHT22;42600;54.408;13.016;2022-12-18T07:51:07;-8.00;92.70
420;DHT22;42600;54.408;13.016;2022-12-18T07:53:35;-8.00;92.70
420;DHT22;42600;54.408;13.016;2022-12-18T07:56:04;-7.90;92.70
420;DHT22;42600;54.408;13.016;2022-12-18T07:58:34;-7.90;92.70
420;DHT22;42600;54.408;13.016;2022-12-18T08:01:04;-7.80;92.70
420;DHT22;42600;54.408;13.016;2022-12-18T08:03:32;-7.70;92.70
420;DHT22;42600;54.408;13.016;2022-12-18T08:06:00;-7.60;92.70
420;DHT22;42600;54.408;13.016;2022-12-18T08:08:27;-7.50;92.70
420;DHT22;42600;54.408;13.016;2022-12-18T08:10:53;-7.50;92.70
420;DHT22;42600;54.408;13.016;2022-12-18T08:13:20;-7.40;92.70
420;DHT22;42600;54.408;13.016;2022-12-18T08:15:56;-7.40;92.70
420;DHT22;42600;54.408;13.016;2022-12-18T08:18:23;-7.30;92.70
420;DHT22;42600;54.408;13.016;2022-12-18T08:20:50;-7.30;92.70
420;DHT22;42600;54.408;13.016;2022-12-18T08:23:16;-7.30;92.70
420;DHT22;42600;54.408;13.016;2022-12-18T08:25:43;-7.30;92.70
420;DHT22;42600;54.408;13.016;2022-12-18T08:28:10;-7.30;92.70
420;DHT22;42600;54.408;13.016;2022-12-18T08:30:37;-7.30;92.70
420;DHT22;42600;54.408;13.016;2022-12-18T08:33:05;-7.20;92.70
420;DHT22;42600;54.408;13.016;2022-12-18T08:35:34;-7.20;92.70
420;DHT22;42600;54.408;13.016;2022-12-18T08:38:01;-7.20;92.70
420;DHT22;42600;54.408;13.016;2022-12-18T08:40:28;-7.20;92.70
420;DHT22;42600;54.408;13.016;2022-12-18T08:42:55;-7.20;92.70
420;DHT22;42600;54.408;13.016;2022-12-18T08:45:39;-7.10;92.70
420;DHT22;42600;54.408;13.016;2022-12-18T08:48:07;-6.90;92.70
420;DHT22;42600;54.408;13.016;2022-12-18T08:50:34;-6.90;92.70
420;DHT22;42600;54.408;13.016;2022-12-18T08:53:00;-6.80;92.70
420;DHT22;42600;54.408;13.016;2022-12-18T08:55:27;-6.80;92.70
420;DHT22;42600;54.408;13.016;2022-12-18T08:57:54;-6.70;92.70
420;DHT22;42600;54.408;13.016;2022-12-18T09:00:20;-6.60;92.70
420;DHT22;42600;54.408;13.016;2022-12-18T09:02:47;-6.50;92.70
420;DHT22;42600;54.408;13.016;2022-12-18T09:05:15;-6.40;92.70
420;DHT22;42600;54.408;13.016;2022-12-18T09:07:42;-6.40;92.70
420;DHT22;42600;54.408;13.016;2022-12-18T09:10:09;-6.30;92.70
420;DHT22;42600;54.408;13.016;2022-12-18T09:12:36;-6.30;92.70
420;DHT22;42600;54.408;13.016;2022-12-18T09:15:03;-6.20;92.70
420;DHT22;42600;54.408;13.016;2022-12-18T09:17:30;-6.20;92.70
420;DHT22;42600;54.408;13.016;2022-12-18T09:19:56;-6.20;92.70
420;DHT22;42600;54.408;13.016;2022-12-18T09:22:24;-6.10;92.70
420;DHT22;42600;54.408;13.016;2022-12-18T09:24:51;-6.10;92.70
420;DHT22;42600;54.408;13.016;2022-12-18T09:27:17;-6.10;92.70
420;DHT22;42600;54.408;13.016;2022-12-18T09:29:44;-6.00;92.70
420;DHT22;42600;54.408;13.016;2022-12-18T09:32:11;-5.90;92.70
420;DHT22;42600;54.408;13.016;2022-12-18T09:34:38;-5.90;92.70
420;DHT22;42600;54.408;13.016;2022-12-18T09:37:05;-5.80;92.70
420;DHT22;42600;54.408;13.016;2022-12-18T09:39:33;-5.80;92.70
420;DHT22;42600;54.408;13.016;2022-12-18T09:42:02;-5.70;92.70
420;DHT22;42600;54.408;13.016;2022-12-18T09:44:31;-5.60;92.70
420;DHT22;42600;54.408;13.016;2022-12-18T09:47:07;-5.70;92.70
420;DHT22;42600;54.408;13.016;2022-12-18T09:49:40;-5.70;92.70
420;DHT22;42600;54.408;13.016;2022-12-18T09:52:13;-5.50;92.70
420;DHT22;42600;54.408;13.016;2022-12-18T09:54:44;-5.50;92.70
420;DHT22;42600;54.408;13.016;2022-12-18T09:57:14;-5.50;92.70
420;DHT22;42600;54.408;13.016;2022-12-18T09:59:46;-5.40;92.70
420;DHT22;42600;54.408;13.016;2022-12-18T10:02:16;-5.50;92.70
420;DHT22;42600;54.408;13.016;2022-12-18T10:04:48;-5.50;92.70
420;DHT22;42600;54.408;13.016;2022-12-18T10:07:20;-5.40;92.70
420;DHT22;42600;54.408;13.016;2022-12-18T10:09:58;-5.40;92.70
420;DHT22;42600;54.408;13.016;2022-12-18T10:12:32;-5.40;92.70
420;DHT22;42600;54.408;13.016;2022-12-18T10:15:06;-5.30;92.70
420;DHT22;42600;54.408;13.016;2022-12-18T10:17:43;-5.20;92.70
420;DHT22;42600;54.408;13.016;2022-12-18T10:20:15;-5.30;92.70
420;DHT22;42600;54.408;13.016;2022-12-18T10:22:53;-5.20;92.70
420;DHT22;42600;54.408;13.016;2022-12-18T10:25:25;-5.10;92.70
420;DHT22;42600;54.408;13.016;2022-12-18T10:27:57;-5.10;92.70
420;DHT22;42600;54.408;13.016;2022-12-18T10:30:26;-5.00;92.70
420;DHT22;42600;54.408;13.016;2022-12-18T10:32:52;-5.00;92.70
420;DHT22;42600;54.408;13.016;2022-12-18T10:35:21;-5.00;92.70
420;DHT22;42600;54.408;13.016;2022-12-18T10:38:02;-5.00;92.70
420;DHT22;42600;54.408;13.016;2022-12-18T10:40:31;-5.00;92.70
420;DHT22;42600;54.408;13.016;2022-12-18T10:43:04;-5.00;92.70
420;DHT22;42600;54.408;13.016;2022-12-18T10:45:31;-5.00;92.70
420;DHT22;42600;54.408;13.016;2022-12-18T10:47:58;-5.10;92.70
420;DHT22;42600;54.408;13.016;2022-12-18T10:50:28;-4.90;92.70
420;DHT22;42600;54.408;13.016;2022-12-18T10:52:57;-4.80;92.70
420;DHT22;42600;54.408;13.016;2022-12-18T10:55:27;-4.70;92.70
420;DHT22;42600;54.408;13.016;2022-12-18T10:58:13;-4.70;92.70
420;DHT22;42600;54.408;13.016;2022-12-18T11:00:42;-4.70;92.70
420;DHT22;42600;54.408;13.016;2022-12-18T11:03:30;-4.70;92.70
420;DHT22;42600;54.408;13.016;2022-12-18T11:06:09;-4.70;92.70
420;DHT22;42600;54.408;13.016;2022-12-18T11:08:36;-4.50;92.70
420;DHT22;42600;54.408;13.016;2022-12-18T11:11:06;-4.60;92.70
420;DHT22;42600;54.408;13.016;2022-12-18T11:13:35;-4.60;92.70
420;DHT22;42600;54.408;13.016;2022-12-18T11:16:02;-4.50;92.70
420;DHT22;42600;54.408;13.016;2022-12-18T11:18:30;-4.50;92.70
420;DHT22;42600;54.408;13.016;2022-12-18T11:21:00;-4.40;92.70
420;DHT22;42600;54.408;13.016;2022-12-18T11:23:31;-4.40;92.70
420;DHT22;42600;54.408;13.016;2022-12-18T11:26:00;-4.30;92.70
420;DHT22;42600;54.408;13.016;2022-12-18T11:28:37;-4.40;92.70
420;DHT22;42600;54.408;13.016;2022-12-18T11:31:20;-4.40;92.70
420;DHT22;42600;54.408;13.016;2022-12-18T11:33:52;-4.40;92.70
420;DHT22;42600;54.408;13.016;2022-12-18T11:36:22;-4.40;92.70
420;DHT22;42600;54.408;13.016;2022-12-18T11:38:51;-4.50;92.70
420;DHT22;42600;54.408;13.016;2022-12-18T11:41:23;-4.10;92.70
420;DHT22;42600;54.408;13.016;2022-12-18T11:44:49;-3.90;92.70
420;DHT22;42600;54.408;13.016;2022-12-18T11:47:27;-3.90;92.70
420;DHT22;42600;54.408;13.016;2022-12-18T11:50:46;-3.90;92.70
420;DHT22;42600;54.408;13.016;2022-12-18T11:53:51;-3.90;92.70
420;DHT22;42600;54.408;13.016;2022-12-18T11:56:28;-3.80;92.70
420;DHT22;42600;54.408;13.016;2022-12-18T11:59:02;-3.80;92.70
420;DHT22;42600;54.408;13.016;2022-12-18T12:01:42;-3.70;92.70
420;DHT22;42600;54.408;13.016;2022-12-18T12:04:34;-3.80;92.70
420;DHT22;42600;54.408;13.016;2022-12-18T12:07:16;-3.60;92.70
420;DHT22;42600;54.408;13.016;2022-12-18T12:09:50;-3.80;92.70
420;DHT22;42600;54.408;13.016;2022-12-18T12:12:30;-3.70;92.70
420;DHT22;42600;54.408;13.016;2022-12-18T12:15:16;-3.60;92.70
420;DHT22;42600;54.408;13.016;2022-12-18T12:17:49;-3.70;92.70
420;DHT22;42600;54.408;13.016;2022-12-18T12:20:22;-3.60;92.70
420;DHT22;42600;54.408;13.016;2022-12-18T12:22:56;-3.50;92.70
420;DHT22;42600;54.408;13.016;2022-12-18T12:25:35;-3.50;92.70
420;DHT22;42600;54.408;13.016;2022-12-18T12:28:15;-3.50;92.70
420;DHT22;42600;54.408;13.016;2022-12-18T12:30:54;-3.50;92.70
420;DHT22;42600;54.408;13.016;2022-12-18T12:33:32;-3.50;92.70
420;DHT22;42600;54.408;13.016;2022-12-18T12:36:09;-3.60;92.70
420;DHT22;42600;54.408;13.016;2022-12-18T12:38:41;-3.50;92.70
420;DHT22;42600;54.408;13.016;2022-12-18T12:41:11;-3.70;92.70
420;DHT22;42600;54.408;13.016;2022-12-18T12:44:02;-3.50;92.70
420;DHT22;42600;54.408;13.016;2022-12-18T12:46:32;-3.60;92.70
420;DHT22;42600;54.408;13.016;2022-12-18T12:49:03;-3.60;92.70
420;DHT22;42600;54.408;13.016;2022-12-18T12:51:33;-3.70;92.70
420;DHT22;42600;54.408;13.016;2022-12-18T12:54:03;-3.60;92.70
420;DHT22;42600;54.408;13.016;2022-12-18T12:56:38;-3.80;92.70
420;DHT22;42600;54.408;13.016;2022-12-18T12:59:11;-3.80;92.70
420;DHT22;42600;54.408;13.016;2022-12-18T13:01:46;-3.80;92.70
420;DHT22;42600;54.408;13.016;2022-12-18T13:04:21;-3.70;92.70
420;DHT22;42600;54.408;13.016;2022-12-18T13:06:58;-3.80;92.70
420;DHT22;42600;54.408;13.016;2022-12-18T13:09:30;-4.00;92.70
420;DHT22;42600;54.408;13.016;2022-12-18T13:12:02;-3.80;92.70
420;DHT22;42600;54.408;13.016;2022-12-18T13:14:49;-3.90;92.70
420;DHT22;42600;54.408;13.016;2022-12-18T13:17:22;-3.90;92.70
420;DHT22;42600;54.408;13.016;2022-12-18T13:20:08;-3.90;92.70
420;DHT22;42600;54.408;13.016;2022-12-18T13:22:37;-3.70;92.70
420;DHT22;42600;54.408;13.016;2022-12-18T13:25:32;-3.70;92.70
420;DHT22;42600;54.408;13.016;2022-12-18T13:28:09;-3.50;92.70
420;DHT22;42600;54.408;13.016;2022-12-18T13:30:48;-3.70;92.70
420;DHT22;42600;54.408;13.016;2022-12-18T13:33:43;-3.80;92.70
420;DHT22;42600;54.408;13.016;2022-12-18T13:39:24;-3.90;92.70
420;DHT22;42600;54.408;13.016;2022-12-18T13:41:53;-3.80;92.70
420;DHT22;42600;54.408;13.016;2022-12-18T13:44:25;-3.90;92.70
420;DHT22;42600;54.408;13.016;2022-12-18T13:46:54;-4.00;92.70
420;DHT22;42600;54.408;13.016;2022-12-18T13:49:23;-4.10;92.70
420;DHT22;42600;54.408;13.016;2022-12-18T13:51:53;-4.20;92.70
420;DHT22;42600;54.408;13.016;2022-12-18T13:54:27;-4.20;92.70
420;DHT22;42600;54.408;13.016;2022-12-18T13:56:55;-4.40;92.70
420;DHT22;42600;54.408;13.016;2022-12-18T13:59:23;-4.50;92.70
420;DHT22;42600;54.408;13.016;2022-12-18T14:01:52;-4.60;92.70
420;DHT22;42600;54.408;13.016;2022-12-18T14:04:23;-4.70;92.70
420;DHT22;42600;54.408;13.016;2022-12-18T14:06:53;-4.70;92.70
420;DHT22;42600;54.408;13.016;2022-12-18T14:09:25;-4.60;92.70
420;DHT22;42600;54.408;13.016;2022-12-18T14:11:52;-4.60;92.70
420;DHT22;42600;54.408;13.016;2022-12-18T14:14:42;-4.70;92.70
420;DHT22;42600;54.408;13.016;2022-12-18T14:17:10;-4.80;92.70
420;DHT22;42600;54.408;13.016;2022-12-18T14:19:41;-4.90;92.70
420;DHT22;42600;54.408;13.016;2022-12-18T14:22:14;-4.90;92.70
420;DHT22;42600;54.408;13.016;2022-12-18T14:24:42;-4.90;92.70
420;DHT22;42600;54.408;13.016;2022-12-18T14:27:19;-5.00;92.70
420;DHT22;42600;54.408;13.016;2022-12-18T14:29:46;-5.10;92.70
420;DHT22;42600;54.408;13.016;2022-12-18T14:32:14;-5.00;92.70
420;DHT22;42600;54.408;13.016;2022-12-18T14:34:42;-4.90;92.70
420;DHT22;42600;54.408;13.016;2022-12-18T14:37:10;-5.00;92.70
420;DHT22;42600;54.408;13.016;2022-12-18T14:39:37;-5.00;92.70
420;DHT22;42600;54.408;13.016;2022-12-18T14:42:05;-5.10;92.70
420;DHT22;42600;54.408;13.016;2022-12-18T14:44:32;-5.10;92.70
420;DHT22;42600;54.408;13.016;2022-12-18T14:46:58;-5.20;92.70
420;DHT22;42600;54.408;13.016;2022-12-18T14:49:28;-5.30;92.70
420;DHT22;42600;54.408;13.016;2022-12-18T14:51:57;-5.30;92.70
420;DHT22;42600;54.408;13.016;2022-12-18T14:54:24;-5.40;92.70
420;DHT22;42600;54.408;13.016;2022-12-18T14:56:56;-5.40;92.70
420;DHT22;42600;54.408;13.016;2022-12-18T14:59:28;-5.50;92.70
420;DHT22;42600;54.408;13.016;2022-12-18T15:01:59;-5.60;92.70
420;DHT22;42600;54.408;13.016;2022-12-18T15:04:28;-5.60;92.70
420;DHT22;42600;54.408;13.016;2022-12-18T15:07:14;-5.70;92.70
420;DHT22;42600;54.408;13.016;2022-12-18T15:09:43;-5.80;92.70
420;DHT22;42600;54.408;13.016;2022-12-18T15:12:22;-5.80;92.70
420;DHT22;42600;54.408;13.016;2022-12-18T15:14:52;-5.80;92.70
420;DHT22;42600;54.408;13.016;2022-12-18T15:17:20;-5.90;92.70
420;DHT22;42600;54.408;13.016;2022-12-18T15:19:48;-5.90;92.70
420;DHT22;42600;54.408;13.016;2022-12-18T15:22:25;-5.90;92.70
420;DHT22;42600;54.408;13.016;2022-12-18T15:24:52;-5.90;92.70
420;DHT22;42600;54.408;13.016;2022-12-18T15:27:25;-5.90;92.70
420;DHT22;42600;54.408;13.016;2022-12-18T15:30:17;-5.90;92.70
420;DHT22;42600;54.408;13.016;2022-12-18T15:32:44;-5.90;92.70
420;DHT22;42600;54.408;13.016;2022-12-18T15:35:14;-5.90;92.70
420;DHT22;42600;54.408;13.016;2022-12-18T15:37:42;-5.90;92.70
420;DHT22;42600;54.408;13.016;2022-12-18T15:40:12;-6.00;92.70
420;DHT22;42600;54.408;13.016;2022-12-18T15:42:39;-5.90;92.70
420;DHT22;42600;54.408;13.016;2022-12-18T15:45:25;-5.90;92.70
420;DHT22;42600;54.408;13.016;2022-12-18T15:47:51;-6.00;92.70
420;DHT22;42600;54.408;13.016;2022-12-18T15:50:18;-6.00;92.70
420;DHT22;42600;54.408;13.016;2022-12-18T15:52:46;-6.00;92.70
420;DHT22;42600;54.408;13.016;2022-12-18T15:55:16;-6.10;92.70
420;DHT22;42600;54.408;13.016;2022-12-18T15:58:01;-6.10;92.70
420;DHT22;42600;54.408;13.016;2022-12-18T16:00:29;-6.10;92.70
420;DHT22;42600;54.408;13.016;2022-12-18T16:02:56;-6.10;92.70
420;DHT22;42600;54.408;13.016;2022-12-18T16:05:23;-6.20;92.70
420;DHT22;42600;54.408;13.016;2022-12-18T16:07:49;-6.20;92.70
420;DHT22;42600;54.408;13.016;2022-12-18T16:10:16;-6.20;92.70